Time;durP1;ratioP1;P1;durP2;ratioP2;P2;SDS_P1;SDS_P2;PMS_P1;PMS_P2;Temp;Humidity;BMP_temperature;BMP_pressure;BME280_temperature;BME280_humidity;BME280_pressure;Samples;Min_cycle;Max_cycle;Signal;HPM_P1;HPM_P2
2022/05/16 00:02:27;0.00;0.00;0.62;0.00;0.00;0.62;2.30;1.67;;;28.40;19.70;;;;;;2246000;61;20365;-57
2022/05/16 00:05:12;0.00;0.00;0.62;0.00;0.00;0.62;2.07;1.53;;;28.40;19.70;;;;;;2244196;61;20799;-61
2022/05/16 00:07:58;0.00;0.00;0.62;0.00;0.00;0.62;2.50;1.70;;;28.40;19.80;;;;;;2244077;61;20385;-56
2022/05/16 00:10:43;0.00;0.00;0.62;0.00;0.00;0.62;3.63;1.53;;;28.40;19.80;;;;;;2244102;61;20851;-54
2022/05/16 00:13:28;0.00;0.00;0.62;0.00;0.00;0.62;2.40;1.40;;;28.40;19.80;;;;;;2244881;61;20873;-59
2022/05/16 00:16:13;0.00;0.00;0.62;0.00;0.00;0.62;2.47;1.70;;;28.30;19.80;;;;;;2244721;61;20368;-56
2022/05/16 00:18:58;0.00;0.00;0.62;0.00;0.00;0.62;3.67;2.20;;;28.30;19.80;;;;;;2244817;61;20420;-55
2022/05/16 00:21:44;0.00;0.00;0.62;0.00;0.00;0.62;3.60;1.73;;;28.40;19.90;;;;;;2244518;61;20420;-53
2022/05/16 00:24:30;0.00;0.00;0.62;0.00;0.00;0.62;2.30;1.50;;;28.30;19.90;;;;;;2245006;61;20384;-55
2022/05/16 00:27:14;0.00;0.00;0.62;0.00;0.00;0.62;1.93;1.37;;;28.30;20.00;;;;;;2244824;61;20369;-53
2022/05/16 00:29:59;0.00;0.00;0.62;0.00;0.00;0.62;2.17;1.57;;;28.30;20.00;;;;;;2244869;61;20778;-55
2022/05/16 00:32:45;0.00;0.00;0.62;0.00;0.00;0.62;3.77;1.80;;;28.30;20.00;;;;;;2244740;61;20391;-56
2022/05/16 00:35:29;0.00;0.00;0.62;0.00;0.00;0.62;2.60;1.60;;;28.30;20.00;;;;;;2244919;61;20448;-55
2022/05/16 00:38:14;0.00;0.00;0.62;0.00;0.00;0.62;2.03;1.23;;;28.30;20.10;;;;;;2244642;61;20372;-57
2022/05/16 00:41:04;0.00;0.00;0.62;0.00;0.00;0.62;2.50;1.63;;;28.30;20.10;;;;;;2244383;61;20928;-55
2022/05/16 00:43:55;0.00;0.00;0.62;0.00;0.00;0.62;4.50;1.50;;;28.30;20.10;;;;;;2244917;61;20372;-59
2022/05/16 00:46:40;0.00;0.00;0.62;0.00;0.00;0.62;2.03;1.50;;;28.30;20.20;;;;;;2244839;61;20890;-55
2022/05/16 00:49:28;0.00;0.00;0.62;0.00;0.00;0.62;2.70;1.90;;;28.30;20.20;;;;;;2244661;61;20794;-57
2022/05/16 00:52:17;0.00;0.00;0.62;0.00;0.00;0.62;2.27;1.53;;;28.30;20.20;;;;;;2244071;61;20912;-61
2022/05/16 00:55:09;0.00;0.00;0.62;0.00;0.00;0.62;1.97;1.40;;;28.20;20.10;;;;;;2244551;61;20443;-53
2022/05/16 00:58:01;0.00;0.00;0.62;0.00;0.00;0.62;2.33;1.60;;;28.30;20.20;;;;;;2244546;61;20373;-58
2022/05/16 01:00:48;0.00;0.00;0.62;0.00;0.00;0.62;1.97;1.57;;;28.30;20.30;;;;;;2244258;61;20420;-58
2022/05/16 01:06:37;0.00;0.00;0.62;0.00;0.00;0.62;2.60;1.47;;;28.30;20.30;;;;;;2244764;61;20364;-57
2022/05/16 01:09:22;0.00;0.00;0.62;0.00;0.00;0.62;2.53;1.73;;;28.20;20.20;;;;;;2244345;61;20453;-60
2022/05/16 01:12:08;0.00;0.00;0.62;0.00;0.00;0.62;3.80;1.43;;;28.20;20.20;;;;;;2243905;61;20408;-59
2022/05/16 01:14:56;0.00;0.00;0.62;0.00;0.00;0.62;3.27;1.60;;;28.30;20.30;;;;;;2244569;61;20424;-57
2022/05/16 01:17:41;0.00;0.00;0.62;0.00;0.00;0.62;2.80;1.63;;;28.20;20.30;;;;;;2244375;61;20378;-59
2022/05/16 01:20:40;0.00;0.00;0.62;0.00;0.00;0.62;1.90;1.50;;;28.20;20.30;;;;;;2244361;61;20364;-58
2022/05/16 01:23:28;0.00;0.00;0.62;0.00;0.00;0.62;2.80;1.60;;;28.20;20.30;;;;;;2244407;61;21030;-58
2022/05/16 01:26:17;0.00;0.00;0.62;0.00;0.00;0.62;2.13;1.50;;;28.20;20.30;;;;;;2244171;61;20501;-58
2022/05/16 01:29:04;0.00;0.00;0.62;0.00;0.00;0.62;2.07;1.57;;;28.20;20.40;;;;;;2245009;61;20360;-56
2022/05/16 01:31:48;0.00;0.00;0.62;0.00;0.00;0.62;2.03;1.50;;;28.20;20.40;;;;;;2244118;61;20383;-59
2022/05/16 01:34:33;0.00;0.00;0.62;0.00;0.00;0.62;2.33;1.60;;;28.20;20.50;;;;;;2244248;61;20393;-57
2022/05/16 01:37:17;0.00;0.00;0.62;0.00;0.00;0.62;2.33;1.50;;;28.20;20.50;;;;;;2244555;61;20369;-59
2022/05/16 01:40:05;0.00;0.00;0.62;0.00;0.00;0.62;2.50;1.87;;;28.20;20.50;;;;;;2244096;61;20905;-59
2022/05/16 01:42:49;0.00;0.00;0.62;0.00;0.00;0.62;2.97;1.70;;;28.20;20.60;;;;;;2244589;61;20457;-54
2022/05/16 01:45:35;0.00;0.00;0.62;0.00;0.00;0.62;1.90;1.40;;;28.20;20.60;;;;;;2244378;61;20695;-56
2022/05/16 01:48:20;0.00;0.00;0.62;0.00;0.00;0.62;2.43;1.27;;;28.20;20.70;;;;;;2244412;61;20369;-57
2022/05/16 01:51:09;0.00;0.00;0.62;0.00;0.00;0.62;2.77;1.80;;;28.20;20.70;;;;;;2244290;61;20949;-58
2022/05/16 01:53:54;0.00;0.00;0.62;0.00;0.00;0.62;2.43;1.30;;;28.20;20.70;;;;;;2244319;61;20848;-57
2022/05/16 01:56:42;0.00;0.00;0.62;0.00;0.00;0.62;2.60;1.63;;;28.20;20.80;;;;;;2244197;61;20373;-59
2022/05/16 01:59:27;0.00;0.00;0.62;0.00;0.00;0.62;2.87;1.83;;;28.20;20.80;;;;;;2244211;61;20372;-59
2022/05/16 02:02:11;0.00;0.00;0.62;0.00;0.00;0.62;2.20;1.60;;;28.20;20.80;;;;;;2243879;61;20791;-59
2022/05/16 02:04:56;0.00;0.00;0.62;0.00;0.00;0.62;1.83;1.30;;;28.20;20.80;;;;;;2244491;61;20384;-58
2022/05/16 02:07:41;0.00;0.00;0.62;0.00;0.00;0.62;2.40;2.10;;;28.20;20.80;;;;;;2244137;61;20412;-60
2022/05/16 02:10:27;0.00;0.00;0.62;0.00;0.00;0.62;1.90;1.23;;;28.20;20.80;;;;;;2243966;61;20910;-59
2022/05/16 02:13:14;0.00;0.00;0.62;0.00;0.00;0.62;3.43;1.80;;;28.20;20.80;;;;;;2244704;61;20767;-52
2022/05/16 02:15:59;0.00;0.00;0.62;0.00;0.00;0.62;3.50;1.83;;;28.20;20.90;;;;;;2243888;61;20536;-60
2022/05/16 02:18:43;0.00;0.00;0.62;0.00;0.00;0.62;2.40;2.00;;;28.10;20.80;;;;;;2244179;61;20948;-60
2022/05/16 02:24:40;0.00;0.00;0.62;0.00;0.00;0.62;2.33;1.43;;;28.20;20.90;;;;;;2244041;61;20388;-58
2022/05/16 02:27:25;0.00;0.00;0.62;0.00;0.00;0.62;2.47;1.53;;;28.10;20.90;;;;;;2244685;61;20415;-59
2022/05/16 02:30:13;0.00;0.00;0.62;0.00;0.00;0.62;1.63;1.20;;;28.10;20.90;;;;;;2244301;61;20950;-58
2022/05/16 02:32:58;0.00;0.00;0.62;0.00;0.00;0.62;1.80;1.20;;;28.10;20.90;;;;;;2244351;61;20460;-56
2022/05/16 02:35:45;0.00;0.00;0.62;0.00;0.00;0.62;2.37;1.50;;;28.10;21.00;;;;;;2244453;61;20428;-62
2022/05/16 02:38:29;0.00;0.00;0.62;0.00;0.00;0.62;1.80;1.40;;;28.10;21.00;;;;;;2244415;61;20384;-58
2022/05/16 02:41:14;0.00;0.00;0.62;0.00;0.00;0.62;2.93;1.70;;;28.10;20.90;;;;;;2243841;61;20385;-58
2022/05/16 02:43:59;0.00;0.00;0.62;0.00;0.00;0.62;2.43;1.80;;;28.10;20.90;;;;;;2244242;61;20460;-57
2022/05/16 02:46:45;0.00;0.00;0.62;0.00;0.00;0.62;1.93;1.53;;;28.10;20.90;;;;;;2244373;61;20364;-59
2022/05/16 02:49:29;0.00;0.00;0.62;0.00;0.00;0.62;2.63;1.77;;;28.10;20.90;;;;;;2244659;61;20377;-57
2022/05/16 02:52:15;0.00;0.00;0.62;0.00;0.00;0.62;2.63;1.40;;;28.10;20.90;;;;;;2243661;61;20427;-56
2022/05/16 02:55:03;0.00;0.00;0.62;0.00;0.00;0.62;2.00;1.40;;;28.10;20.90;;;;;;2243738;61;20404;-59
2022/05/16 02:57:49;0.00;0.00;0.62;0.00;0.00;0.62;2.10;1.57;;;28.10;20.90;;;;;;2244354;61;20428;-57
2022/05/16 03:00:34;0.00;0.00;0.62;0.00;0.00;0.62;2.50;1.27;;;28.10;20.90;;;;;;2243681;61;20400;-57
2022/05/16 03:03:20;0.00;0.00;0.62;0.00;0.00;0.62;2.57;1.60;;;28.10;20.90;;;;;;2244494;61;20827;-56
2022/05/16 03:06:05;0.00;0.00;0.62;0.00;0.00;0.62;2.13;1.30;;;28.10;20.90;;;;;;2244178;61;20396;-56
2022/05/16 03:08:51;0.00;0.00;0.62;0.00;0.00;0.62;2.60;1.67;;;28.10;20.90;;;;;;2244396;61;20385;-57
2022/05/16 03:11:36;0.00;0.00;0.62;0.00;0.00;0.62;2.00;1.60;;;28.10;20.90;;;;;;2243990;61;20388;-54
2022/05/16 03:14:21;0.00;0.00;0.62;0.00;0.00;0.62;2.93;1.70;;;28.00;20.80;;;;;;2244135;61;20476;-57
2022/05/16 03:17:05;0.00;0.00;0.62;0.00;0.00;0.62;1.63;1.30;;;28.10;20.90;;;;;;2244394;61;20419;-55
2022/05/16 03:19:51;0.00;0.00;0.62;0.00;0.00;0.62;2.30;1.73;;;28.00;20.80;;;;;;2244439;61;20926;-58
2022/05/16 03:22:36;0.00;0.00;0.62;0.00;0.00;0.62;2.17;1.63;;;28.00;20.80;;;;;;2244021;61;20424;-57
2022/05/16 03:25:21;0.00;0.00;0.62;0.00;0.00;0.62;2.00;1.33;;;28.10;20.90;;;;;;2244345;61;20432;-60
2022/05/16 03:28:06;0.00;0.00;0.62;0.00;0.00;0.62;2.63;1.67;;;28.00;20.90;;;;;;2244282;61;20380;-57
2022/05/16 03:30:50;0.00;0.00;0.62;0.00;0.00;0.62;2.20;1.40;;;28.00;20.90;;;;;;2243573;61;20877;-57
2022/05/16 03:33:35;0.00;0.00;0.62;0.00;0.00;0.62;3.40;1.73;;;28.00;20.90;;;;;;2244374;61;20360;-57
2022/05/16 03:36:21;0.00;0.00;0.62;0.00;0.00;0.62;2.50;1.30;;;28.00;20.90;;;;;;2244258;61;20409;-55
2022/05/16 03:42:10;0.00;0.00;0.62;0.00;0.00;0.62;2.30;1.70;;;28.00;20.90;;;;;;2243759;61;20412;-61
2022/05/16 03:44:54;0.00;0.00;0.62;0.00;0.00;0.62;2.13;1.40;;;28.00;20.90;;;;;;2244578;61;20388;-59
2022/05/16 03:47:39;0.00;0.00;0.62;0.00;0.00;0.62;2.40;1.60;;;28.00;20.90;;;;;;2244856;61;20364;-56
2022/05/16 03:50:24;0.00;0.00;0.62;0.00;0.00;0.62;2.03;1.70;;;28.00;20.90;;;;;;2244636;61;20441;-59
2022/05/16 03:53:10;0.00;0.00;0.62;0.00;0.00;0.62;2.47;1.33;;;27.90;20.90;;;;;;2244844;61;20458;-55
2022/05/16 03:55:55;0.00;0.00;0.62;0.00;0.00;0.62;2.13;1.57;;;28.00;21.00;;;;;;2245005;61;20455;-59
2022/05/16 03:58:40;0.00;0.00;0.62;0.00;0.00;0.62;2.07;1.30;;;27.90;21.00;;;;;;2244638;61;20440;-56
2022/05/16 04:01:27;0.00;0.00;0.62;0.00;0.00;0.62;1.50;1.27;;;27.90;21.10;;;;;;2244155;61;20373;-60
2022/05/16 04:04:12;0.00;0.00;0.62;0.00;0.00;0.62;2.10;1.53;;;27.90;21.10;;;;;;2247436;61;20388;-57
2022/05/16 04:06:56;0.00;0.00;0.62;0.00;0.00;0.62;1.80;1.33;;;27.90;21.10;;;;;;2244777;61;20376;-59
2022/05/16 04:09:42;0.00;0.00;0.62;0.00;0.00;0.62;2.10;1.67;;;27.90;21.70;;;;;;2244689;61;20373;-59
2022/05/16 04:12:27;0.00;0.00;0.62;0.00;0.00;0.62;1.70;1.27;;;27.90;21.10;;;;;;2244294;61;20945;-58
2022/05/16 04:15:13;0.00;0.00;0.62;0.00;0.00;0.62;1.93;1.33;;;27.90;21.10;;;;;;2244436;61;20480;-59
2022/05/16 04:17:58;0.00;0.00;0.62;0.00;0.00;0.62;2.57;1.40;;;27.90;21.10;;;;;;2244904;61;20369;-58
2022/05/16 04:20:42;0.00;0.00;0.62;0.00;0.00;0.62;2.40;1.30;;;27.90;21.10;;;;;;2244387;61;20412;-59
2022/05/16 04:23:27;0.00;0.00;0.62;0.00;0.00;0.62;1.80;1.50;;;27.90;21.10;;;;;;2244561;61;20965;-58
2022/05/16 04:26:13;0.00;0.00;0.62;0.00;0.00;0.62;2.40;1.70;;;27.90;21.10;;;;;;2244402;61;20411;-58
2022/05/16 04:28:57;0.00;0.00;0.62;0.00;0.00;0.62;1.90;1.30;;;27.90;21.10;;;;;;2244689;61;20513;-59
2022/05/16 04:31:42;0.00;0.00;0.62;0.00;0.00;0.62;3.47;1.40;;;27.90;21.10;;;;;;2244212;61;20477;-54
2022/05/16 04:34:27;0.00;0.00;0.62;0.00;0.00;0.62;1.93;1.40;;;27.80;21.00;;;;;;2244495;61;20471;-55
2022/05/16 04:37:11;0.00;0.00;0.62;0.00;0.00;0.62;2.50;1.73;;;27.80;21.00;;;;;;2247145;61;20396;-59
2022/05/16 04:39:56;0.00;0.00;0.62;0.00;0.00;0.62;2.03;1.13;;;27.80;21.00;;;;;;2244651;61;20501;-56
2022/05/16 04:42:42;0.00;0.00;0.62;0.00;0.00;0.62;1.93;1.30;;;27.80;21.00;;;;;;2244205;61;20361;-57
2022/05/16 04:45:30;0.00;0.00;0.62;0.00;0.00;0.62;2.80;1.63;;;27.80;21.00;;;;;;2244760;61;20453;-57
2022/05/16 04:48:14;0.00;0.00;0.62;0.00;0.00;0.62;2.90;1.40;;;27.80;21.00;;;;;;2244745;61;20494;-59
2022/05/16 04:50:59;0.00;0.00;0.62;0.00;0.00;0.62;1.70;1.47;;;27.80;21.00;;;;;;2244476;61;20456;-58
2022/05/16 04:53:44;0.00;0.00;0.62;0.00;0.00;0.62;1.90;1.53;;;27.80;21.00;;;;;;2244755;61;20404;-56
2022/05/16 04:56:29;0.00;0.00;0.62;0.00;0.00;0.62;2.40;1.60;;;27.80;21.10;;;;;;2244188;61;20428;-57
2022/05/16 04:59:15;0.00;0.00;0.62;0.00;0.00;0.62;1.63;1.13;;;27.80;21.20;;;;;;2244895;61;20364;-58
2022/05/16 05:02:00;0.00;0.00;0.62;0.00;0.00;0.62;2.73;1.20;;;27.80;21.20;;;;;;2244193;61;20929;-59
2022/05/16 05:04:45;0.00;0.00;0.62;0.00;0.00;0.62;2.23;1.40;;;27.80;21.20;;;;;;2244363;61;20388;-63
2022/05/16 05:07:30;0.00;0.00;0.62;0.00;0.00;0.62;2.03;1.40;;;27.80;21.20;;;;;;2244701;61;20376;-61
2022/05/16 05:16:27;0.00;0.00;0.62;0.00;0.00;0.62;2.70;1.63;;;27.80;21.20;;;;;;2244692;61;20432;-64
2022/05/16 05:19:11;0.00;0.00;0.62;0.00;0.00;0.62;1.90;1.43;;;27.70;21.20;;;;;;2244404;61;20369;-60
2022/05/16 05:21:56;0.00;0.00;0.62;0.00;0.00;0.62;2.60;1.47;;;27.70;21.20;;;;;;2244133;61;20420;-59
2022/05/16 05:24:40;0.00;0.00;0.62;0.00;0.00;0.62;3.40;1.70;;;27.70;21.20;;;;;;2244660;61;20415;-59
2022/05/16 05:27:25;0.00;0.00;0.62;0.00;0.00;0.62;2.07;1.53;;;27.70;21.20;;;;;;2244440;61;20369;-59
2022/05/16 05:30:14;0.00;0.00;0.62;0.00;0.00;0.62;2.07;1.50;;;27.70;21.20;;;;;;2244397;61;20372;-60
2022/05/16 05:33:00;0.00;0.00;0.62;0.00;0.00;0.62;2.50;1.87;;;27.70;21.20;;;;;;2244453;61;20405;-61
2022/05/16 05:35:44;0.00;0.00;0.62;0.00;0.00;0.62;3.10;1.80;;;27.70;21.20;;;;;;2244342;61;20392;-53
2022/05/16 05:38:29;0.00;0.00;0.62;0.00;0.00;0.62;3.00;1.60;;;27.70;21.30;;;;;;2244553;61;20408;-62
2022/05/16 05:41:14;0.00;0.00;0.62;0.00;0.00;0.62;2.13;1.43;;;27.70;21.30;;;;;;2244013;61;20882;-61
2022/05/16 05:43:59;0.00;0.00;0.62;0.00;0.00;0.62;1.70;1.30;;;27.70;21.30;;;;;;2244446;61;20364;-61
2022/05/16 05:46:43;0.00;0.00;0.62;0.00;0.00;0.62;2.37;1.87;;;27.70;21.30;;;;;;2244396;61;20371;-60
2022/05/16 05:49:29;0.00;0.00;0.62;0.00;0.00;0.62;1.90;1.50;;;27.70;21.30;;;;;;2244380;61;20388;-60
2022/05/16 05:52:17;0.00;0.00;0.62;0.00;0.00;0.62;2.10;1.83;;;27.70;21.40;;;;;;2243911;61;20389;-56
2022/05/16 05:55:03;0.00;0.00;0.62;0.00;0.00;0.62;3.70;1.77;;;27.70;21.40;;;;;;2244412;61;20971;-55
2022/05/16 05:57:48;0.00;0.00;0.62;0.00;0.00;0.62;2.30;1.53;;;27.70;21.40;;;;;;2244215;61;20404;-56
2022/05/16 06:00:35;0.00;0.00;0.62;0.00;0.00;0.62;1.80;1.53;;;27.70;21.40;;;;;;2243904;61;20368;-60
2022/05/16 06:03:19;0.00;0.00;0.62;0.00;0.00;0.62;2.70;2.37;;;27.70;21.40;;;;;;2244345;61;20440;-57
2022/05/16 06:06:05;0.00;0.00;0.62;0.00;0.00;0.62;3.27;2.30;;;27.70;21.40;;;;;;2244575;61;20384;-61
2022/05/16 06:08:50;0.00;0.00;0.62;0.00;0.00;0.62;3.30;2.23;;;27.70;21.40;;;;;;2243893;61;20377;-60
2022/05/16 06:11:35;0.00;0.00;0.62;0.00;0.00;0.62;2.70;2.40;;;27.70;21.40;;;;;;2243718;61;20436;-61
2022/05/16 06:14:19;0.00;0.00;0.62;0.00;0.00;0.62;3.17;2.50;;;27.70;21.40;;;;;;2243785;61;20392;-60
2022/05/16 06:17:04;0.00;0.00;0.62;0.00;0.00;0.62;2.97;2.20;;;27.70;21.50;;;;;;2244581;61;20372;-60
2022/05/16 06:19:49;0.00;0.00;0.62;0.00;0.00;0.62;3.10;2.57;;;27.70;21.50;;;;;;2244163;61;20649;-60
2022/05/16 06:22:37;0.00;0.00;0.62;0.00;0.00;0.62;4.70;3.17;;;27.70;21.50;;;;;;2243827;61;20369;-60
2022/05/16 06:25:31;0.00;0.00;0.62;0.00;0.00;0.62;4.50;2.60;;;27.70;21.50;;;;;;2244482;61;20797;-58
2022/05/16 06:28:20;0.00;0.00;0.62;0.00;0.00;0.62;3.53;3.00;;;27.70;21.50;;;;;;2244139;61;20361;-60
2022/05/16 06:31:05;0.00;0.00;0.62;0.00;0.00;0.62;3.63;2.90;;;27.70;21.50;;;;;;2244054;61;20365;-60
2022/05/16 06:33:50;0.00;0.00;0.62;0.00;0.00;0.62;3.33;2.90;;;27.70;21.50;;;;;;2244212;61;20396;-60
2022/05/16 06:36:34;0.00;0.00;0.62;0.00;0.00;0.62;3.97;2.70;;;27.70;21.50;;;;;;2243841;61;20372;-59
2022/05/16 06:39:20;0.00;0.00;0.62;0.00;0.00;0.62;4.87;3.30;;;27.70;21.50;;;;;;2244416;61;20372;-55
2022/05/16 06:42:06;0.00;0.00;0.62;0.00;0.00;0.62;4.00;2.57;;;27.70;21.50;;;;;;2243548;61;20439;-62
2022/05/16 06:44:53;0.00;0.00;0.62;0.00;0.00;0.62;3.80;2.87;;;27.70;21.40;;;;;;2483563;53;20425;-60
2022/05/16 06:47:37;0.00;0.00;0.62;0.00;0.00;0.62;5.90;3.20;;;27.70;21.40;;;;;;2240478;61;20370;-60
2022/05/16 06:50:22;0.00;0.00;0.62;0.00;0.00;0.62;4.13;2.73;;;27.60;21.20;;;;;;2239919;61;20373;-60
2022/05/16 06:53:11;0.00;0.00;0.62;0.00;0.00;0.62;3.30;2.67;;;27.60;21.30;;;;;;2239808;61;20437;-60
2022/05/16 06:55:58;0.00;0.00;0.62;0.00;0.00;0.62;4.63;3.13;;;27.60;21.30;;;;;;2240266;61;20872;-67
2022/05/16 06:58:42;0.00;0.00;0.62;0.00;0.00;0.62;3.10;2.57;;;27.60;21.30;;;;;;2239972;61;20987;-60
2022/05/16 07:01:27;0.00;0.00;0.62;0.00;0.00;0.62;2.80;2.40;;;27.60;21.30;;;;;;2239832;61;20374;-66
2022/05/16 07:04:12;0.00;0.00;0.62;0.00;0.00;0.62;5.27;2.83;;;27.60;21.30;;;;;;2244532;61;20419;-67
2022/05/16 07:06:57;0.00;0.00;0.62;0.00;0.00;0.62;4.77;3.07;;;27.60;21.20;;;;;;2240030;61;20641;-67
2022/05/16 07:09:41;0.00;0.00;0.62;0.00;0.00;0.62;3.37;2.63;;;27.60;21.20;;;;;;2240222;61;20843;-66
2022/05/16 07:12:27;0.00;0.00;0.62;0.00;0.00;0.62;3.40;2.67;;;27.60;21.20;;;;;;2239835;61;20810;-66
2022/05/16 07:15:13;0.00;0.00;0.62;0.00;0.00;0.62;3.33;2.53;;;27.50;21.10;;;;;;2240256;61;21042;-66
2022/05/16 07:17:59;0.00;0.00;0.62;0.00;0.00;0.62;4.40;2.70;;;27.60;21.20;;;;;;2240099;61;20445;-66
2022/05/16 07:20:44;0.00;0.00;0.62;0.00;0.00;0.62;2.90;2.47;;;27.60;21.20;;;;;;2240180;61;20421;-65
2022/05/16 07:23:29;0.00;0.00;0.62;0.00;0.00;0.62;4.00;2.70;;;27.50;21.10;;;;;;2241158;61;20361;-60
2022/05/16 07:29:19;0.00;0.00;0.62;0.00;0.00;0.62;4.33;2.53;;;27.50;21.10;;;;;;2240694;61;20762;-65
2022/05/16 07:32:04;0.00;0.00;0.62;0.00;0.00;0.62;4.37;2.63;;;27.50;21.10;;;;;;2240321;61;20438;-65
2022/05/16 07:34:49;0.00;0.00;0.62;0.00;0.00;0.62;2.90;2.60;;;27.50;21.10;;;;;;2240661;61;20393;-65
2022/05/16 07:37:34;0.00;0.00;0.62;0.00;0.00;0.62;2.67;2.27;;;27.50;21.10;;;;;;2240961;61;20390;-62
2022/05/16 07:40:18;0.00;0.00;0.62;0.00;0.00;0.62;3.83;2.90;;;27.50;21.20;;;;;;2247271;61;20395;-64
2022/05/16 07:43:04;0.00;0.00;0.62;0.00;0.00;0.62;2.60;2.33;;;27.50;21.20;;;;;;2248700;61;20379;-66
2022/05/16 07:45:50;0.00;0.00;0.62;0.00;0.00;0.62;5.83;2.50;;;27.50;21.70;;;;;;2248823;61;20383;-59
2022/05/16 07:48:35;0.00;0.00;0.62;0.00;0.00;0.62;3.90;2.50;;;27.50;21.20;;;;;;2248472;61;20395;-66
2022/05/16 07:51:20;0.00;0.00;0.62;0.00;0.00;0.62;4.83;2.50;;;27.50;21.20;;;;;;2248425;61;20890;-62
2022/05/16 07:54:05;0.00;0.00;0.62;0.00;0.00;0.62;3.20;2.03;;;27.50;21.20;;;;;;2248818;61;20371;-65
2022/05/16 07:56:50;0.00;0.00;0.62;0.00;0.00;0.62;5.03;2.80;;;27.50;21.20;;;;;;2248663;61;20463;-64
2022/05/16 07:59:35;0.00;0.00;0.62;0.00;0.00;0.62;3.30;1.93;;;27.50;21.20;;;;;;2248878;61;20968;-64
2022/05/16 08:02:21;0.00;0.00;0.62;0.00;0.00;0.62;5.63;2.40;;;27.50;21.30;;;;;;2248602;61;20507;-64
2022/05/16 08:05:07;0.00;0.00;0.62;0.00;0.00;0.62;5.67;2.50;;;27.50;21.30;;;;;;2248598;61;20514;-58
2022/05/16 08:10:56;0.00;0.00;0.62;0.00;0.00;0.62;3.70;2.23;;;27.50;21.30;;;;;;2248369;61;20406;-58
2022/05/16 08:13:42;0.00;0.00;0.62;0.00;0.00;0.62;3.57;2.80;;;27.50;21.30;;;;;;2248251;61;20426;-59
2022/05/16 08:16:27;0.00;0.00;0.62;0.00;0.00;0.62;4.20;2.30;;;27.50;21.30;;;;;;2248576;61;20375;-57
2022/05/16 08:19:13;0.00;0.00;0.62;0.00;0.00;0.62;3.00;2.40;;;27.50;21.40;;;;;;2248364;61;20415;-57
2022/05/16 08:21:57;0.00;0.00;0.62;0.00;0.00;0.62;4.80;2.97;;;27.60;21.40;;;;;;2248222;61;20780;-61
2022/05/16 08:24:42;0.00;0.00;0.62;0.00;0.00;0.62;3.63;2.30;;;27.60;21.40;;;;;;2248033;61;20407;-64
2022/05/16 08:27:26;0.00;0.00;0.62;0.00;0.00;0.62;4.73;2.37;;;27.50;21.30;;;;;;2248354;61;20367;-60
2022/05/16 08:30:12;0.00;0.00;0.62;0.00;0.00;0.62;3.13;2.20;;;27.50;21.40;;;;;;2248602;61;20394;-68
2022/05/16 08:32:59;0.00;0.00;0.62;0.00;0.00;0.62;3.53;2.60;;;27.60;21.50;;;;;;2248413;61;20439;-58
2022/05/16 08:39:51;0.00;0.00;0.62;0.00;0.00;0.62;3.67;2.27;;;27.60;21.50;;;;;;2248333;61;20380;-64
2022/05/16 08:41:56;0.00;0.00;0.62;0.00;0.00;0.62;5.83;2.83;;;27.60;21.50;;;;;;2248170;61;20378;-70
2022/05/16 08:44:52;0.00;0.00;0.62;0.00;0.00;0.62;4.43;2.70;;;27.60;21.60;;;;;;2248540;61;20431;-64
2022/05/16 08:47:49;0.00;0.00;0.62;0.00;0.00;0.62;4.03;2.90;;;27.60;21.60;;;;;;2248604;61;20360;-65
2022/05/16 08:50:40;0.00;0.00;0.62;0.00;0.00;0.62;5.27;3.43;;;27.60;21.70;;;;;;2247617;61;20901;-65
2022/05/16 08:53:31;0.00;0.00;0.62;0.00;0.00;0.62;4.90;3.23;;;27.60;21.70;;;;;;2248401;61;20863;-61
2022/05/16 08:56:23;0.00;0.00;0.62;0.00;0.00;0.62;4.03;2.50;;;27.60;21.70;;;;;;2248313;61;20384;-60
2022/05/16 08:59:14;0.00;0.00;0.62;0.00;0.00;0.62;6.20;2.80;;;27.70;21.70;;;;;;2248512;61;20973;-62
2022/05/16 09:02:05;0.00;0.00;0.62;0.00;0.00;0.62;5.27;3.27;;;27.70;21.70;;;;;;2248244;61;20359;-60
2022/05/16 09:04:57;0.00;0.00;0.62;0.00;0.00;0.62;3.80;3.07;;;27.70;21.70;;;;;;2248149;61;20431;-65
2022/05/16 09:07:46;0.00;0.00;0.62;0.00;0.00;0.62;6.00;3.23;;;27.70;21.80;;;;;;2248975;61;20403;-67
2022/05/16 09:10:50;0.00;0.00;0.62;0.00;0.00;0.62;8.27;4.07;;;27.70;21.80;;;;;;2247858;61;20807;-67
2022/05/16 09:13:49;0.00;0.00;0.62;0.00;0.00;0.62;5.13;3.73;;;27.70;21.90;;;;;;2248519;61;20391;-74
2022/05/16 09:16:44;0.00;0.00;0.62;0.00;0.00;0.62;4.40;2.90;;;27.70;21.90;;;;;;2248396;61;20467;-63
2022/05/16 09:20:04;0.00;0.00;0.62;0.00;0.00;0.62;6.13;3.50;;;27.70;21.90;;;;;;2247968;61;20893;-65
2022/05/16 09:22:59;0.00;0.00;0.62;0.00;0.00;0.62;5.37;3.50;;;27.70;22.00;;;;;;2248495;61;20710;-63
2022/05/16 09:26:00;0.00;0.00;0.62;0.00;0.00;0.62;5.53;3.07;;;27.80;22.00;;;;;;2248020;61;20464;-63
2022/05/16 09:28:50;0.00;0.00;0.62;0.00;0.00;0.62;4.23;2.93;;;27.80;22.00;;;;;;2248509;61;20400;-59
2022/05/16 09:31:42;0.00;0.00;0.62;0.00;0.00;0.62;4.00;3.07;;;27.80;22.00;;;;;;2247851;61;20504;-62
2022/05/16 09:34:28;0.00;0.00;0.62;0.00;0.00;0.62;4.63;3.13;;;27.80;21.90;;;;;;2247676;61;20788;-61
2022/05/16 09:37:13;0.00;0.00;0.62;0.00;0.00;0.62;3.57;2.90;;;27.80;21.90;;;;;;2247891;61;20372;-56
2022/05/16 09:39:58;0.00;0.00;0.62;0.00;0.00;0.62;4.17;2.83;;;27.80;21.90;;;;;;2244110;61;20412;-60
2022/05/16 09:42:43;0.00;0.00;0.62;0.00;0.00;0.62;4.73;3.10;;;27.80;22.00;;;;;;2244165;61;20894;-55
2022/05/16 09:45:29;0.00;0.00;0.62;0.00;0.00;0.62;6.63;3.07;;;27.80;22.00;;;;;;2244380;61;20400;-61
2022/05/16 09:48:19;0.00;0.00;0.62;0.00;0.00;0.62;5.43;2.70;;;27.80;22.00;;;;;;2244342;61;20388;-58
2022/05/16 09:51:07;0.00;0.00;0.62;0.00;0.00;0.62;3.83;2.70;;;27.80;22.00;;;;;;2244019;61;20373;-60
2022/05/16 09:53:52;0.00;0.00;0.62;0.00;0.00;0.62;3.40;3.00;;;27.80;22.00;;;;;;2244189;61;20395;-60
2022/05/16 09:56:37;0.00;0.00;0.62;0.00;0.00;0.62;3.37;2.30;;;27.90;22.10;;;;;;2244018;61;20368;-59
2022/05/16 09:59:38;0.00;0.00;0.62;0.00;0.00;0.62;3.20;2.70;;;27.90;22.10;;;;;;2244661;61;20376;-60
2022/05/16 10:02:27;0.00;0.00;0.62;0.00;0.00;0.62;3.83;2.53;;;27.90;22.10;;;;;;2243909;61;20364;-63
2022/05/16 10:05:26;0.00;0.00;0.62;0.00;0.00;0.62;4.50;2.90;;;27.90;22.20;;;;;;2244194;61;20400;-57
2022/05/16 10:08:13;0.00;0.00;0.62;0.00;0.00;0.62;5.27;3.20;;;27.90;22.20;;;;;;2244250;61;20797;-60
2022/05/16 10:11:02;0.00;0.00;0.62;0.00;0.00;0.62;11.83;3.80;;;28.00;22.30;;;;;;2243837;61;20412;-61
2022/05/16 10:13:48;0.00;0.00;0.62;0.00;0.00;0.62;3.50;2.97;;;28.00;22.30;;;;;;2243891;61;20391;-63
2022/05/16 10:16:48;0.00;0.00;0.62;0.00;0.00;0.62;7.03;3.43;;;28.00;22.30;;;;;;2244306;61;20905;-57
2022/05/16 10:19:33;0.00;0.00;0.62;0.00;0.00;0.62;6.60;3.70;;;28.00;22.30;;;;;;2244194;61;20368;-59
2022/05/16 10:22:22;0.00;0.00;0.62;0.00;0.00;0.62;6.23;3.20;;;28.00;22.30;;;;;;2243894;61;20774;-60
2022/05/16 10:25:14;0.00;0.00;0.62;0.00;0.00;0.62;4.53;3.03;;;28.00;22.40;;;;;;2244291;61;20392;-57
2022/05/16 10:28:01;0.00;0.00;0.62;0.00;0.00;0.62;5.10;3.33;;;28.00;22.40;;;;;;2244286;61;20420;-60
2022/05/16 10:33:51;0.00;0.00;0.62;0.00;0.00;0.62;3.50;2.90;;;28.10;22.40;;;;;;2243823;61;20391;-60
2022/05/16 10:36:37;0.00;0.00;0.62;0.00;0.00;0.62;5.43;3.67;;;28.10;22.40;;;;;;2244462;61;20372;-57
2022/05/16 10:39:26;0.00;0.00;0.62;0.00;0.00;0.62;4.40;2.90;;;28.10;22.50;;;;;;2245877;61;20782;-58
2022/05/16 10:42:17;0.00;0.00;0.62;0.00;0.00;0.62;4.60;3.10;;;28.10;22.50;;;;;;2247777;61;20371;-58
2022/05/16 10:45:06;0.00;0.00;0.62;0.00;0.00;0.62;4.50;3.03;;;28.10;22.50;;;;;;2248305;61;20414;-60
2022/05/16 10:48:00;0.00;0.00;0.62;0.00;0.00;0.62;6.30;3.40;;;28.10;22.50;;;;;;2248033;61;20479;-58
2022/05/16 10:50:50;0.00;0.00;0.62;0.00;0.00;0.62;5.33;3.30;;;28.10;22.50;;;;;;2247945;61;20415;-60
2022/05/16 10:53:40;0.00;0.00;0.62;0.00;0.00;0.62;5.10;3.00;;;28.20;22.60;;;;;;2247912;61;20395;-58
2022/05/16 10:56:54;0.00;0.00;0.62;0.00;0.00;0.62;4.17;2.93;;;28.20;22.60;;;;;;2248244;61;20359;-58
2022/05/16 10:59:59;0.00;0.00;0.62;0.00;0.00;0.62;3.83;2.97;;;28.20;22.60;;;;;;2248110;61;20919;-56
2022/05/16 11:03:34;0.00;0.00;0.62;0.00;0.00;0.62;8.33;3.50;;;28.20;22.70;;;;;;2247995;61;20368;-60
2022/05/16 11:06:56;0.00;0.00;0.62;0.00;0.00;0.62;5.20;3.77;;;28.20;22.70;;;;;;2247846;61;20422;-59
2022/05/16 11:09:51;0.00;0.00;0.62;0.00;0.00;0.62;5.50;3.47;;;28.30;22.70;;;;;;2248053;61;20521;-60
2022/05/16 11:12:46;0.00;0.00;0.62;0.00;0.00;0.62;4.10;3.00;;;28.30;23.30;;;;;;2247432;61;20499;-59
2022/05/16 11:15:37;0.00;0.00;0.62;0.00;0.00;0.62;3.77;3.10;;;28.30;22.70;;;;;;2248004;61;20441;-61
2022/05/16 11:18:32;0.00;0.00;0.62;0.00;0.00;0.62;5.83;3.27;;;28.30;22.70;;;;;;2248030;61;20364;-60
2022/05/16 11:21:40;0.00;0.00;0.62;0.00;0.00;0.62;4.83;3.10;;;28.30;22.70;;;;;;2247825;61;20904;-61
2022/05/16 11:24:35;0.00;0.00;0.62;0.00;0.00;0.62;3.40;2.60;;;28.40;22.80;;;;;;2248285;61;20432;-60
2022/05/16 11:27:32;0.00;0.00;0.62;0.00;0.00;0.62;3.80;3.40;;;28.40;22.80;;;;;;2248204;61;20492;-61
2022/05/16 11:30:25;0.00;0.00;0.62;0.00;0.00;0.62;5.00;3.47;;;28.40;22.80;;;;;;2247849;61;20564;-60